Weather at Miami International Airport

Public forecast

Using degrees Fahrenheit for public forecast. Weather courtesy of forecast.io.

Current aviation weather report (METAR) for Miami International Airport

Retrieved 2022/07/06 03:03 UTC (55 minutes ago):

KMIA 060303Z 16003KT 10SM -RA SCT023CB SCT050 BKN070 BKN250 28/25 A3004 RMK AO2 CB W-NW MOV NW CB DSNT NE MOV NW P0001 T02780250

Aviation forecast (TAF) for Miami International Airport

Retrieved 2022-07-06 00:30 UTC (3 hours ago):

TAF KMIA 052328Z 0600/0706 10011KT P6SM SCT025 SCT060 FM060600 12006KT P6SM SCT035 SCT250 FM061400 13010KT P6SM VCSH SCT025 BKN050 FM061600 11011KT P6SM VCTS SCT025CB BKN050 FM062000 12010KT P6SM SCT030 BKN050